메인 페이지
METAR-TAF:

METAR-TAF

공항 :

웰링턴 국제공항

웰링턴, 뉴질랜드

위도: 41-20S, 경도: 174-48E, 고도: 12m

현재 날씨관측

예보는 23분 전, 05:00시(UTC)에 발표되었습니다.
북북서23kt, 순간 최대 풍속 38kt북서풍과 북북동풍을 오가는
온도 16°C
습도 77%
기압 1004 hPa
시정 10km 이상

METAR: NZWN 250500Z AUTO 34023G38KT 310V020 9999 BKN022/// BKN028/// 16/12 Q1004

시각: 17:23 (05:23 UTC)

예보

예보는 3 시간 21분 전, 02:02시(UTC)에 발표되었습니다.
예보 대상 시간: 25일 03시부터 26일 06시까지 (UTC)
25kt, 순간 최대 풍속 45kt
시정 10km 이상
고도 3000ft 상공 구름 많음
전환 중
25일 05시부터 25일 07시까지 (UTC)
20kt, 순간 최대 풍속 30kt
일시적
25일 13시부터 25일 17시까지 (UTC)
시정: 5000m
소나기
전환 중
25일 21시부터 25일 23시까지 (UTC)
북서15kt
일시적
25일 21시부터 25일 23시까지 (UTC)
시정: 7000m
소나기,

TAF: NZWN 250202Z 2503/2606 36025G45KT 9999 BKN030 BECMG 2505/2507 35020G30KT TEMPO 2513/2517 5000 SHRA BECMG 2521/2523 32015KT TEMPO 2521/2523 7000 SHRA

4,000개 이상의 공항 관측 자료 및 예보 (METAR 및 TAF 보고).

지도상에서 검색 가능한 기상관측소가 노란 점과 빨간 점으로 표시되어 있습니다.

기상관측소 명을 보려면 표시 위로 마우스를 이동하세요.

날씨 관측과 예보를 보려면 클릭하세요.

지도 변경 : 확대하려면 엑스 표시가 있는 녹색 버튼, 축소하려면 빼기 표시가 있는 녹색 버튼, 다음 페이지의 지도를 보려면 녹색 화살표를 클릭하세요.


METAR-TAF: